Max Planck — ELZY8 — position and weather

sailwx.info

Track history (hours):
 
Tides and Currents Weather Stations Pressure Air Temp Water Temp Dewpoint Dewpoint Depression Visibility Wind Speed Wind Dir Waves Ship Positions

Max Planck

Last reported at 2016-Jun-30 04:33 UTC. Time now 2016-Jun-30 10:31 UTC.
Position N 34°55' E 139°27'.

Length 99.9 m; beam 16.2 m; draft 6.8 m.

Type: Tanker. MMSI: 636017362.

Date/timePositionNaut miles runAvg speedWind from/ knotsBaromVisibWave heightAir tempDewpointWater temp
2016-Jun-30 04:33N 34°55' E 139°27'1210.6
2016-Jun-30 03:23N 35°03' E 139°39'810.1
2016-Jun-30 02:33N 35°10' E 139°45'1111.0
2016-Jun-30 01:33N 35°21' E 139°42'9 8.6
2016-Jun-30 00:33N 35°29' E 139°46'0 0.0
2016-Jun-29 23:31N 35°29' E 139°46'0 0.1
2016-Jun-29 22:31N 35°29' E 139°46'3 2.4
2016-Jun-29 21:27N 35°31' E 139°46'0 0.0
2016-Jun-29 00:31N 35°31' E 139°46'4 4.2
2016-Jun-28 23:33N 35°29' E 139°42'2 1.8
2016-Jun-28 22:33N 35°28' E 139°44'0 0.0
2016-Jun-28 21:33N 35°28' E 139°44'0 0.0
2016-Jun-28 20:33N 35°28' E 139°44'0 0.0
2016-Jun-28 19:33N 35°28' E 139°44'0 0.0
2016-Jun-28 18:33N 35°28' E 139°44'0 0.0
2016-Jun-28 17:33N 35°28' E 139°44'0 0.0
2016-Jun-28 16:33N 35°28' E 139°44'0 0.0
2016-Jun-28 15:33N 35°28' E 139°44'0 0.0
2016-Jun-28 14:33N 35°28' E 139°44'0 0.0
2016-Jun-28 13:33N 35°28' E 139°44'0 0.0
2016-Jun-28 12:33N 35°28' E 139°44'0 0.1
2016-Jun-28 11:33N 35°28' E 139°44'0 0.1
2016-Jun-28 10:33N 35°28' E 139°44'0 0.0
2016-Jun-28 09:33N 35°28' E 139°44'0 0.0
2016-Jun-28 08:33N 35°28' E 139°44'0 0.0
2016-Jun-28 07:33N 35°28' E 139°44'0 0.0
2016-Jun-28 06:33N 35°28' E 139°44'0 0.0
2016-Jun-28 04:33N 35°28' E 139°44'0 0.0
2016-Jun-28 03:33N 35°28' E 139°44'0 0.0
2016-Jun-28 02:33N 35°28' E 139°44'0 0.0
2016-Jun-28 01:33N 35°28' E 139°44'0 0.0
2016-Jun-28 00:33N 35°28' E 139°44'0 0.1
2016-Jun-27 23:33N 35°28' E 139°44'0 0.0
2016-Jun-27 22:33N 35°28' E 139°44'0 0.1
2016-Jun-27 21:33N 35°28' E 139°44'0 0.0
2016-Jun-27 20:33N 35°28' E 139°44'0 0.0
2016-Jun-27 19:33N 35°28' E 139°44'0 0.0
2016-Jun-27 18:33N 35°28' E 139°44'0 0.0
2016-Jun-27 17:33N 35°28' E 139°44'0 0.0
2016-Jun-27 16:33N 35°28' E 139°44'0 0.1
2016-Jun-27 15:33N 35°28' E 139°44'0 0.0
2016-Jun-27 14:33N 35°28' E 139°44'0 0.0
2016-Jun-27 13:33N 35°28' E 139°44'0 0.1
2016-Jun-27 12:33N 35°28' E 139°44'0 0.0
2016-Jun-27 11:33N 35°28' E 139°44'0 0.1
2016-Jun-27 10:33N 35°28' E 139°44'2 2.1
2016-Jun-27 09:33N 35°27' E 139°46'9 8.9
2016-Jun-27 08:33N 35°18' E 139°45'9 9.3
2016-Jun-27 07:33N 35°09' E 139°46'10 9.9
2016-Jun-27 06:33N 34°59' E 139°41'1110.5
2016-Jun-27 05:32N 34°49' E 139°41'  
Track history (hours):
 
Tides and Currents Weather Stations Pressure Air Temp Water Temp Dewpoint Dewpoint Depression Visibility Wind Speed Wind Dir Waves Ship Positions

Max Planck

Last reported at 2016-Jun-30 04:33 UTC. Time now 2016-Jun-30 10:31 UTC.
Position N 34°55' E 139°27'.

Length 99.9 m; beam 16.2 m; draft 6.8 m.

Type: Tanker. MMSI: 636017362.

Date/timePositionNaut miles runAvg speedWind from/ knotsBaromVisibWave heightAir tempDewpointWater temp
2016-Jun-30 04:33N 34°55' E 139°27'1210.6
2016-Jun-30 03:23N 35°03' E 139°39'810.1
2016-Jun-30 02:33N 35°10' E 139°45'1111.0
2016-Jun-30 01:33N 35°21' E 139°42'9 8.6
2016-Jun-30 00:33N 35°29' E 139°46'0 0.0
2016-Jun-29 23:31N 35°29' E 139°46'0 0.1
2016-Jun-29 22:31N 35°29' E 139°46'3 2.4
2016-Jun-29 21:27N 35°31' E 139°46'0 0.0
2016-Jun-29 00:31N 35°31' E 139°46'4 4.2
2016-Jun-28 23:33N 35°29' E 139°42'2 1.8
2016-Jun-28 22:33N 35°28' E 139°44'0 0.0
2016-Jun-28 21:33N 35°28' E 139°44'0 0.0
2016-Jun-28 20:33N 35°28' E 139°44'0 0.0
2016-Jun-28 19:33N 35°28' E 139°44'0 0.0
2016-Jun-28 18:33N 35°28' E 139°44'0 0.0
2016-Jun-28 17:33N 35°28' E 139°44'0 0.0
2016-Jun-28 16:33N 35°28' E 139°44'0 0.0
2016-Jun-28 15:33N 35°28' E 139°44'0 0.0
2016-Jun-28 14:33N 35°28' E 139°44'0 0.0
2016-Jun-28 13:33N 35°28' E 139°44'0 0.0
2016-Jun-28 12:33N 35°28' E 139°44'0 0.1
2016-Jun-28 11:33N 35°28' E 139°44'0 0.1
2016-Jun-28 10:33N 35°28' E 139°44'0 0.0
2016-Jun-28 09:33N 35°28' E 139°44'0 0.0
2016-Jun-28 08:33N 35°28' E 139°44'0 0.0
2016-Jun-28 07:33N 35°28' E 139°44'0 0.0
2016-Jun-28 06:33N 35°28' E 139°44'0 0.0
2016-Jun-28 04:33N 35°28' E 139°44'0 0.0
2016-Jun-28 03:33N 35°28' E 139°44'0 0.0
2016-Jun-28 02:33N 35°28' E 139°44'0 0.0
2016-Jun-28 01:33N 35°28' E 139°44'0 0.0
2016-Jun-28 00:33N 35°28' E 139°44'0 0.1
2016-Jun-27 23:33N 35°28' E 139°44'0 0.0
2016-Jun-27 22:33N 35°28' E 139°44'0 0.1
2016-Jun-27 21:33N 35°28' E 139°44'0 0.0
2016-Jun-27 20:33N 35°28' E 139°44'0 0.0
2016-Jun-27 19:33N 35°28' E 139°44'0 0.0
2016-Jun-27 18:33N 35°28' E 139°44'0 0.0
2016-Jun-27 17:33N 35°28' E 139°44'0 0.0
2016-Jun-27 16:33N 35°28' E 139°44'0 0.1
2016-Jun-27 15:33N 35°28' E 139°44'0 0.0
2016-Jun-27 14:33N 35°28' E 139°44'0 0.0
2016-Jun-27 13:33N 35°28' E 139°44'0 0.1
2016-Jun-27 12:33N 35°28' E 139°44'0 0.0
2016-Jun-27 11:33N 35°28' E 139°44'0 0.1
2016-Jun-27 10:33N 35°28' E 139°44'2 2.1
2016-Jun-27 09:33N 35°27' E 139°46'9 8.9
2016-Jun-27 08:33N 35°18' E 139°45'9 9.3
2016-Jun-27 07:33N 35°09' E 139°46'10 9.9
2016-Jun-27 06:33N 34°59' E 139°41'1110.5
2016-Jun-27 05:32N 34°49' E 139°41'  

Dump ship's entire track history